createdAt,value
2022-11-09T00:01:43.813Z,3.00
2022-11-09T00:05:55.123Z,3.60
2022-11-09T00:09:56.920Z,3.90
2022-11-09T00:13:58.652Z,3.03
2022-11-09T00:18:02.873Z,3.67
2022-11-09T00:22:04.526Z,3.20
2022-11-09T00:26:09.345Z,3.47
2022-11-09T00:30:11.873Z,4.35
2022-11-09T00:34:13.992Z,3.00
2022-11-09T00:38:17.194Z,2.45
2022-11-09T00:42:19.081Z,2.70
2022-11-09T00:46:21.187Z,2.80
2022-11-09T00:50:25.456Z,2.90
2022-11-09T00:54:27.235Z,2.30
2022-11-09T00:58:31.976Z,3.67
2022-11-09T01:02:33.667Z,2.83
2022-11-09T01:06:35.447Z,3.13
2022-11-09T01:10:42.406Z,2.40
2022-11-09T01:14:44.370Z,3.00
2022-11-09T01:18:46.245Z,3.50
2022-11-09T01:22:47.920Z,2.60
2022-11-09T01:26:49.584Z,2.25
2022-11-09T01:30:51.726Z,2.60
2022-11-09T01:34:53.420Z,2.25
2022-11-09T01:38:55.191Z,3.47
2022-11-09T01:42:57.282Z,3.00
2022-11-09T01:47:06.600Z,2.83
2022-11-09T01:51:23.099Z,3.20
2022-11-09T01:55:25.643Z,2.92
2022-11-09T01:59:33.177Z,4.32
2022-11-09T02:03:39.632Z,3.70
2022-11-09T02:07:42.791Z,4.78
2022-11-09T02:11:44.559Z,3.50
2022-11-09T02:15:49.814Z,4.03
2022-11-09T02:19:51.549Z,5.10
2022-11-09T02:23:53.409Z,2.95
2022-11-09T02:27:55.302Z,3.03
2022-11-09T02:32:04.058Z,2.92
2022-11-09T02:36:06.143Z,2.67
2022-11-09T02:40:14.619Z,3.60
2022-11-09T02:44:18.494Z,4.30
2022-11-09T02:48:20.647Z,2.90
2022-11-09T02:52:22.353Z,3.50
2022-11-09T02:56:25.650Z,3.20
2022-11-09T03:00:27.630Z,2.75
2022-11-09T03:04:30.212Z,3.70
2022-11-09T03:08:32.894Z,3.78
2022-11-09T03:12:35.330Z,3.42
2022-11-09T03:16:43.412Z,2.95
2022-11-09T03:20:49.606Z,3.30
2022-11-09T03:24:52.463Z,3.63
2022-11-09T03:28:55.146Z,3.90
2022-11-09T03:33:01.866Z,3.60
2022-11-09T03:37:03.908Z,3.33
2022-11-09T03:41:06.907Z,3.13
2022-11-09T03:45:10.927Z,3.22
2022-11-09T03:49:12.612Z,2.80
2022-11-09T03:53:14.688Z,3.00
2022-11-09T03:57:16.356Z,4.80
2022-11-09T04:01:18.159Z,3.40
2022-11-09T04:05:20.520Z,2.85
2022-11-09T04:09:22.416Z,3.30
2022-11-09T04:13:24.169Z,2.60
2022-11-09T04:17:25.975Z,2.90
2022-11-09T04:21:27.675Z,3.47
2022-11-09T04:25:33.138Z,3.90
2022-11-09T04:29:34.835Z,3.25
2022-11-09T04:33:36.778Z,3.75
2022-11-09T04:37:38.446Z,3.20
2022-11-09T04:41:40.160Z,3.90
2022-11-09T04:45:41.845Z,2.83
2022-11-09T04:49:43.511Z,2.45
2022-11-09T04:53:45.490Z,2.95
2022-11-09T04:57:47.181Z,3.65
2022-11-09T05:01:48.822Z,3.40
2022-11-09T05:05:50.467Z,2.60
2022-11-09T05:09:52.096Z,2.33
2022-11-09T05:13:55.843Z,2.45
2022-11-09T05:17:58.785Z,2.47
2022-11-09T05:22:20.491Z,2.35
2022-11-09T05:26:22.461Z,2.50
2022-11-09T05:30:24.219Z,2.63
2022-11-09T05:34:25.838Z,3.00
2022-11-09T05:38:27.757Z,3.33
2022-11-09T05:42:29.438Z,2.92
2022-11-09T05:46:32.838Z,2.75
2022-11-09T05:50:34.960Z,2.28
2022-11-09T05:54:56.982Z,2.10
2022-11-09T05:58:58.638Z,2.10
2022-11-09T06:03:11.214Z,2.40
2022-11-09T06:07:13.031Z,2.50
2022-11-09T06:11:21.807Z,2.30
2022-11-09T06:15:24.883Z,2.60
2022-11-09T06:19:26.527Z,2.30
2022-11-09T06:23:29.409Z,2.72
2022-11-09T06:27:31.112Z,1.95
2022-11-09T06:31:32.891Z,2.30
2022-11-09T06:35:34.534Z,3.13
2022-11-09T06:39:36.208Z,2.30
2022-11-09T06:43:37.906Z,2.72
2022-11-09T06:47:39.556Z,2.90
2022-11-09T06:51:41.228Z,2.63
2022-11-09T06:55:49.881Z,2.95
2022-11-09T06:59:52.443Z,3.28
2022-11-09T07:03:54.358Z,3.00
2022-11-09T07:07:57.275Z,2.67
2022-11-09T07:11:58.949Z,2.30
2022-11-09T07:16:00.682Z,3.05
2022-11-09T07:20:03.173Z,2.70
2022-11-09T07:24:05.078Z,2.80
2022-11-09T07:28:08.941Z,2.72
2022-11-09T07:32:10.654Z,2.33
2022-11-09T07:36:16.831Z,2.08
2022-11-09T07:40:21.579Z,2.20
2022-11-09T07:44:23.214Z,2.10
2022-11-09T07:48:26.150Z,2.83
2022-11-09T07:52:27.853Z,3.35
2022-11-09T07:56:29.554Z,2.95
2022-11-09T08:00:34.804Z,2.63
2022-11-09T08:04:36.542Z,2.55
2022-11-09T08:08:38.206Z,3.17
2022-11-09T08:12:40.071Z,2.60
2022-11-09T08:16:41.717Z,3.70
2022-11-09T08:20:43.623Z,3.20
2022-11-09T08:24:45.297Z,2.55
2022-11-09T08:28:47.048Z,2.30
2022-11-09T08:32:49.508Z,1.98
2022-11-09T08:36:51.174Z,2.30
2022-11-09T08:40:59.465Z,2.05
2022-11-09T08:45:01.417Z,2.80
2022-11-09T08:49:03.084Z,2.28
2022-11-09T08:53:05.559Z,2.80
2022-11-09T08:57:07.291Z,2.33
2022-11-09T09:01:15.390Z,2.13
2022-11-09T09:05:18.831Z,7.97
2022-11-09T09:09:20.655Z,3.80
2022-11-09T09:13:22.806Z,3.50
2022-11-09T09:17:25.018Z,3.78
2022-11-09T09:21:26.736Z,2.75
2022-11-09T09:25:28.542Z,1.80
2022-11-09T09:29:30.523Z,1.65
2022-11-09T09:33:32.547Z,2.10
2022-11-09T09:37:34.419Z,2.13
2022-11-09T09:42:05.749Z,5.50
2022-11-09T09:46:19.493Z,1.85
2022-11-09T09:50:32.350Z,2.10
2022-11-09T09:54:41.040Z,2.70
2022-11-09T09:58:58.767Z,2.83
2022-11-09T10:03:01.154Z,2.10
2022-11-09T10:07:27.957Z,1.92
2022-11-09T10:11:35.630Z,2.00
2022-11-09T10:15:59.648Z,2.70
2022-11-09T10:20:18.267Z,2.50
2022-11-09T10:24:31.972Z,3.40
2022-11-09T10:29:09.228Z,2.95
2022-11-09T10:33:23.225Z,2.70
2022-11-09T10:37:32.572Z,2.40
2022-11-09T10:41:44.312Z,3.53
2022-11-09T10:46:08.970Z,2.53
2022-11-09T10:50:38.623Z,3.08
2022-11-09T10:55:23.991Z,2.60
2022-11-09T10:59:49.929Z,3.33
2022-11-09T11:04:20.944Z,4.40
2022-11-09T11:08:44.313Z,2.45
2022-11-09T11:13:04.564Z,2.60
2022-11-09T11:17:35.000Z,2.80
2022-11-09T11:22:19.319Z,2.70
2022-11-09T11:26:42.593Z,2.58
2022-11-09T11:31:03.689Z,3.15
2022-11-09T11:35:26.624Z,2.70
2022-11-09T11:40:15.264Z,3.25
2022-11-09T11:45:33.599Z,2.33
2022-11-09T11:54:54.163Z,2.53
2022-11-09T11:59:48.045Z,3.40
2022-11-09T12:04:31.862Z,3.33
2022-11-09T12:09:17.408Z,3.10
2022-11-09T12:13:58.574Z,3.30
2022-11-09T12:18:33.534Z,2.90
2022-11-09T12:23:19.191Z,3.38
2022-11-09T12:27:58.107Z,2.50
2022-11-09T12:32:54.636Z,2.53
2022-11-09T12:37:19.503Z,3.70
2022-11-09T12:41:40.628Z,4.30
2022-11-09T12:46:04.445Z,3.50
2022-11-09T12:50:26.838Z,4.05
2022-11-09T12:54:48.913Z,3.38
2022-11-09T12:59:34.445Z,3.70
2022-11-09T13:03:57.484Z,4.40
2022-11-09T13:08:24.163Z,3.25
2022-11-09T13:12:44.427Z,3.42
2022-11-09T13:17:23.886Z,4.05
2022-11-09T13:21:44.045Z,3.40
2022-11-09T13:26:05.827Z,3.83
2022-11-09T13:30:28.270Z,3.40
2022-11-09T13:35:02.455Z,3.20
2022-11-09T13:39:30.830Z,3.53
2022-11-09T13:44:08.657Z,3.92
2022-11-09T13:49:01.344Z,3.50
2022-11-09T13:53:53.100Z,3.13
2022-11-09T13:58:29.129Z,2.72
2022-11-09T14:02:57.448Z,2.70
2022-11-09T14:07:27.608Z,3.72
2022-11-09T14:12:01.775Z,2.78
2022-11-09T14:16:41.556Z,3.05
2022-11-09T14:21:36.178Z,3.05
2022-11-09T14:25:56.116Z,3.05
2022-11-09T14:30:24.097Z,3.03
2022-11-09T14:34:44.727Z,3.00
2022-11-09T14:39:14.560Z,3.10
2022-11-09T14:43:43.096Z,2.80
2022-11-09T14:48:03.234Z,3.20
2022-11-09T14:52:29.851Z,4.30
2022-11-09T14:56:50.428Z,5.90
2022-11-09T15:01:20.039Z,5.95
2022-11-09T15:05:40.890Z,4.88
2022-11-09T15:10:08.738Z,4.07
2022-11-09T15:14:32.615Z,4.22
2022-11-09T15:18:53.142Z,3.20
2022-11-09T15:23:37.015Z,3.60
2022-11-09T15:28:09.476Z,3.88
2022-11-09T15:32:35.440Z,3.60
2022-11-09T15:36:55.948Z,3.00
2022-11-09T15:41:19.737Z,3.45
2022-11-09T15:45:40.026Z,4.35
2022-11-09T15:50:02.030Z,4.53
2022-11-09T15:54:23.979Z,3.13
2022-11-09T15:58:44.692Z,3.15
2022-11-09T16:03:05.087Z,4.20
2022-11-09T16:07:25.264Z,3.88
2022-11-09T16:11:49.234Z,3.70
2022-11-09T16:16:11.902Z,3.70
2022-11-09T16:20:32.206Z,5.00
2022-11-09T16:24:52.423Z,4.20
2022-11-09T16:29:13.147Z,4.75
2022-11-09T16:33:33.776Z,5.10
2022-11-09T16:37:55.279Z,4.72
2022-11-09T16:42:18.565Z,4.68
2022-11-09T16:46:42.171Z,4.63
2022-11-09T16:51:02.394Z,4.75
2022-11-09T16:55:22.475Z,4.85
2022-11-09T16:59:43.075Z,5.97
2022-11-09T17:04:03.441Z,4.65
2022-11-09T17:08:23.675Z,5.40
2022-11-09T17:12:44.268Z,6.32
2022-11-09T17:17:04.526Z,4.88
2022-11-09T17:21:27.273Z,3.65
2022-11-09T17:26:05.519Z,4.75
2022-11-09T17:30:26.031Z,4.65
2022-11-09T17:34:45.958Z,5.70
2022-11-09T17:39:06.360Z,4.18
2022-11-09T17:43:29.763Z,3.20
2022-11-09T17:47:50.188Z,4.47
2022-11-09T17:52:10.276Z,3.58
2022-11-09T17:56:31.899Z,4.15
2022-11-09T18:00:52.447Z,4.57
2022-11-09T18:05:15.699Z,3.42
2022-11-09T18:09:41.358Z,3.05
2022-11-09T18:14:03.506Z,4.70
2022-11-09T18:18:25.220Z,4.95
2022-11-09T18:22:45.830Z,4.40
2022-11-09T18:27:06.126Z,4.50
2022-11-09T18:31:26.722Z,5.03
2022-11-09T18:36:06.266Z,4.70
2022-11-09T18:40:26.749Z,5.75
2022-11-09T18:44:47.049Z,4.72
2022-11-09T18:49:13.029Z,4.30
2022-11-09T18:53:38.350Z,5.40
2022-11-09T18:57:58.493Z,2.53
2022-11-09T19:02:18.722Z,4.57
2022-11-09T19:06:39.096Z,4.40
2022-11-09T19:11:04.973Z,4.63
2022-11-09T19:15:25.195Z,5.75
2022-11-09T19:19:45.227Z,4.70
2022-11-09T19:24:06.937Z,4.28
2022-11-09T19:28:27.086Z,4.05
2022-11-09T19:32:47.466Z,3.15
2022-11-09T19:37:09.002Z,3.03
2022-11-09T19:41:29.645Z,3.13
2022-11-09T19:45:49.764Z,5.75
2022-11-09T19:50:10.220Z,3.55
2022-11-09T19:54:30.623Z,3.90
2022-11-09T19:58:53.247Z,4.55
2022-11-09T20:03:13.226Z,5.10
2022-11-09T20:07:33.568Z,4.28
2022-11-09T20:12:12.190Z,4.35
2022-11-09T20:16:33.704Z,4.60
2022-11-09T20:20:54.252Z,3.75
2022-11-09T20:25:14.723Z,4.35
2022-11-09T20:29:34.964Z,3.58
2022-11-09T20:33:56.392Z,3.17
2022-11-09T20:38:16.470Z,3.83
2022-11-09T20:42:36.834Z,3.60
2022-11-09T20:46:57.001Z,3.20
2022-11-09T20:51:18.975Z,3.83
2022-11-09T20:55:40.303Z,3.58
2022-11-09T21:00:00.785Z,4.00
2022-11-09T21:04:21.065Z,3.42
2022-11-09T21:08:47.728Z,3.40
2022-11-09T21:13:07.912Z,3.83
2022-11-09T21:17:28.503Z,3.25
2022-11-09T21:21:48.564Z,3.50
2022-11-09T21:26:27.980Z,4.68
2022-11-09T21:30:48.591Z,3.53
2022-11-09T21:35:08.943Z,4.60
2022-11-09T21:39:29.269Z,4.28
2022-11-09T21:43:56.251Z,4.07
2022-11-09T21:48:16.742Z,5.10
2022-11-09T21:52:37.109Z,4.32
2022-11-09T21:56:57.652Z,5.45
2022-11-09T22:01:18.658Z,4.82
2022-11-09T22:05:42.109Z,4.90
2022-11-09T22:10:11.078Z,4.30
2022-11-09T22:14:50.311Z,5.20
2022-11-09T22:19:29.230Z,5.30
2022-11-09T22:23:49.948Z,3.80
2022-11-09T22:28:10.323Z,3.60
2022-11-09T22:32:30.826Z,3.50
2022-11-09T22:36:51.110Z,4.13
2022-11-09T22:41:13.880Z,4.43
2022-11-09T22:45:34.321Z,4.05
2022-11-09T22:49:54.547Z,6.20
2022-11-09T22:54:14.812Z,4.40
2022-11-09T22:58:34.884Z,4.78
2022-11-09T23:02:57.848Z,4.53
2022-11-09T23:07:17.960Z,5.97
2022-11-09T23:11:38.234Z,6.20
2022-11-09T23:16:02.823Z,5.57
2022-11-09T23:20:23.557Z,6.22
2022-11-09T23:25:02.244Z,6.32
2022-11-09T23:29:22.544Z,4.90
2022-11-09T23:33:43.223Z,7.18
2022-11-09T23:38:05.829Z,6.13
2022-11-09T23:42:25.853Z,5.80
2022-11-09T23:46:45.998Z,7.47
2022-11-09T23:51:07.827Z,6.28
2022-11-09T23:55:28.779Z,6.13
2022-11-09T23:59:48.875Z,5.10
